Time;durP1;ratioP1;P1;durP2;ratioP2;P2;SDS_P1;SDS_P2;PMS_P1;PMS_P2;Temp;Humidity;BMP_temperature;BMP_pressure;BME280_temperature;BME280_humidity;BME280_pressure;Samples;Min_cycle;Max_cycle;Signal;HPM_P1;HPM_P2
2023/12/28 00:01:08;;;;;;;6.05;1.05;;;10.00;99.90;;;;;;5052364;28;20107;-75
2023/12/28 00:03:34;;;;;;;2.40;0.70;;;10.00;99.90;;;;;;5049685;28;20112;-75
2023/12/28 00:06:00;;;;;;;2.08;0.80;;;10.00;99.90;;;;;;5052348;28;20024;-76
2023/12/28 00:08:25;;;;;;;2.22;1.00;;;10.00;99.90;;;;;;5051318;28;20029;-75
2023/12/28 00:10:51;;;;;;;2.65;0.93;;;10.00;99.90;;;;;;5032911;28;20033;-75
2023/12/28 00:13:17;;;;;;;3.53;1.10;;;10.00;99.90;;;;;;5050630;28;20017;-75
2023/12/28 00:15:42;;;;;;;2.58;0.90;;;10.00;99.90;;;;;;5052654;28;20056;-75
2023/12/28 00:18:08;;;;;;;3.17;1.05;;;10.00;99.90;;;;;;5051341;28;20064;-74
2023/12/28 00:20:34;;;;;;;5.65;1.10;;;10.00;99.90;;;;;;5049227;28;20039;-75
2023/12/28 00:23:00;;;;;;;3.55;0.88;;;10.00;99.90;;;;;;5043558;28;20627;-74
2023/12/28 00:25:26;;;;;;;3.20;1.25;;;10.00;99.90;;;;;;5046652;28;20032;-74
2023/12/28 00:27:52;;;;;;;3.55;0.98;;;10.10;99.90;;;;;;5050919;28;20059;-75
2023/12/28 00:30:17;;;;;;;3.13;1.17;;;10.10;99.90;;;;;;5051991;28;20029;-74
2023/12/28 00:32:45;;;;;;;4.03;0.88;;;10.10;99.90;;;;;;5031823;28;20612;-75
2023/12/28 00:35:11;;;;;;;2.42;0.73;;;10.00;99.90;;;;;;5050004;28;20087;-75
2023/12/28 00:37:37;;;;;;;2.65;1.20;;;10.00;99.90;;;;;;5051772;28;20021;-75
2023/12/28 00:40:03;;;;;;;2.85;1.17;;;10.00;99.90;;;;;;5050973;28;20055;-75
2023/12/28 00:42:28;;;;;;;3.00;0.90;;;10.00;99.90;;;;;;5033004;28;20419;-75
2023/12/28 00:44:54;;;;;;;3.92;1.38;;;10.00;99.90;;;;;;5033808;28;20025;-75
2023/12/28 00:47:19;;;;;;;1.80;0.90;;;10.00;99.90;;;;;;5050864;28;20426;-75
2023/12/28 00:49:45;;;;;;;3.03;0.93;;;9.90;99.90;;;;;;5049632;28;20060;-75
2023/12/28 00:52:11;;;;;;;2.15;0.95;;;10.00;99.90;;;;;;5039791;28;20092;-75
2023/12/28 00:54:37;;;;;;;2.38;1.00;;;9.90;99.90;;;;;;5051321;28;20104;-75
2023/12/28 00:57:03;;;;;;;2.30;0.95;;;9.90;99.90;;;;;;5051460;28;20033;-75
2023/12/28 00:59:30;;;;;;;3.67;0.90;;;9.90;99.90;;;;;;5050115;28;20023;-75
2023/12/28 01:01:56;;;;;;;3.25;0.93;;;9.90;99.90;;;;;;5046597;28;20051;-75
2023/12/28 01:04:23;;;;;;;3.80;0.95;;;9.90;99.90;;;;;;5050555;28;20036;-75
2023/12/28 01:06:49;;;;;;;2.97;0.93;;;9.90;99.90;;;;;;5050298;28;20071;-75
2023/12/28 01:09:15;;;;;;;2.22;0.75;;;9.90;99.90;;;;;;5049817;28;20099;-76
2023/12/28 01:11:40;;;;;;;5.03;1.00;;;10.00;99.90;;;;;;5049602;28;20457;-75
2023/12/28 01:14:07;;;;;;;2.47;1.05;;;9.90;99.90;;;;;;5047813;28;20099;-75
2023/12/28 01:16:32;;;;;;;4.15;1.02;;;9.90;99.90;;;;;;5050633;28;20376;-75
2023/12/28 01:18:58;;;;;;;2.53;1.00;;;9.90;99.90;;;;;;5051001;28;20092;-75
2023/12/28 01:21:24;;;;;;;3.35;1.17;;;9.90;99.90;;;;;;5048110;28;20576;-76
2023/12/28 01:23:51;;;;;;;4.60;1.55;;;9.90;99.90;;;;;;5049217;28;20025;-75
2023/12/28 01:26:19;;;;;;;2.25;0.70;;;9.90;99.90;;;;;;5047874;28;20115;-75
2023/12/28 01:28:45;;;;;;;4.78;1.17;;;9.90;99.90;;;;;;5044998;28;20036;-75
2023/12/28 01:31:11;;;;;;;3.47;1.00;;;9.90;99.90;;;;;;5045544;28;20029;-75
2023/12/28 01:33:36;;;;;;;4.70;1.17;;;9.90;99.90;;;;;;5045812;28;20028;-75
2023/12/28 01:36:03;;;;;;;3.90;1.30;;;9.90;99.90;;;;;;5043248;28;20048;-75
2023/12/28 01:38:28;;;;;;;3.83;1.05;;;9.80;99.90;;;;;;5049954;28;20053;-75
2023/12/28 01:40:54;;;;;;;4.03;0.98;;;9.90;99.90;;;;;;5049514;28;20066;-75
2023/12/28 01:43:19;;;;;;;3.65;1.17;;;9.80;99.90;;;;;;5038287;28;20013;-75
2023/12/28 01:45:46;;;;;;;3.17;0.93;;;9.90;99.90;;;;;;5050225;28;20489;-75
2023/12/28 01:48:13;;;;;;;4.47;1.17;;;9.90;99.90;;;;;;5050602;28;20021;-75
2023/12/28 01:50:39;;;;;;;2.70;1.17;;;9.80;99.90;;;;;;5049529;28;20087;-75
2023/12/28 01:53:06;;;;;;;2.70;1.02;;;9.90;99.90;;;;;;5041238;28;20029;-75
2023/12/28 01:55:33;;;;;;;3.20;1.10;;;9.80;99.90;;;;;;5050025;28;20175;-75
2023/12/28 01:57:58;;;;;;;4.60;1.40;;;9.80;99.90;;;;;;5050688;28;20021;-75
2023/12/28 02:00:24;;;;;;;3.20;1.13;;;9.80;99.90;;;;;;5049882;28;20040;-75
2023/12/28 02:02:51;;;;;;;4.45;1.15;;;9.80;99.90;;;;;;5042959;28;20029;-78
2023/12/28 02:05:17;;;;;;;4.20;1.15;;;9.80;99.90;;;;;;5052812;28;20029;-76
2023/12/28 02:07:43;;;;;;;3.40;1.00;;;9.80;99.90;;;;;;5034399;28;20024;-75
2023/12/28 02:10:09;;;;;;;4.30;1.02;;;9.80;99.90;;;;;;5054952;28;20384;-75
2023/12/28 02:12:35;;;;;;;4.55;1.20;;;9.80;99.90;;;;;;5050772;28;20078;-75
2023/12/28 02:15:01;;;;;;;3.80;1.20;;;9.70;99.90;;;;;;5045064;28;20032;-75
2023/12/28 02:17:59;;;;;;;4.28;1.10;;;9.80;99.90;;;;;;5053920;28;20021;-75
2023/12/28 02:20:27;;;;;;;4.65;1.13;;;9.80;99.90;;;;;;5054555;28;20350;-76
2023/12/28 02:22:53;;;;;;;3.13;1.00;;;9.80;99.90;;;;;;5031378;28;20029;-75
2023/12/28 02:25:19;;;;;;;7.10;0.75;;;9.80;99.90;;;;;;5054339;28;20025;-75
2023/12/28 02:27:46;;;;;;;5.05;1.67;;;9.80;99.90;;;;;;5054028;28;20083;-75
2023/12/28 02:30:15;;;;;;;4.80;0.90;;;9.80;99.90;;;;;;5054869;28;20079;-75
2023/12/28 02:32:58;;;;;;;5.13;1.20;;;9.90;99.90;;;;;;5043231;28;20029;-75
2023/12/28 02:35:36;;;;;;;9.02;1.13;;;9.80;99.90;;;;;;5053087;28;20087;-75
2023/12/28 02:38:09;;;;;;;5.47;1.00;;;9.80;99.90;;;;;;5051920;28;20037;-75
2023/12/28 02:40:40;;;;;;;5.20;1.00;;;9.80;99.90;;;;;;5051214;28;20040;-75
2023/12/28 02:43:07;;;;;;;4.13;0.90;;;9.80;99.90;;;;;;5026772;28;20022;-76
2023/12/28 02:45:32;;;;;;;4.15;0.90;;;9.80;99.90;;;;;;5051207;28;20091;-75
2023/12/28 02:47:58;;;;;;;4.20;0.80;;;9.80;99.90;;;;;;5053144;28;20021;-75
2023/12/28 02:50:24;;;;;;;3.78;1.10;;;9.80;99.90;;;;;;5046958;28;20400;-75
2023/12/28 02:52:49;;;;;;;4.88;1.15;;;9.80;99.90;;;;;;5047964;28;20071;-75
2023/12/28 02:55:15;;;;;;;4.20;0.93;;;9.80;99.90;;;;;;5034410;28;20555;-75
2023/12/28 02:57:40;;;;;;;7.00;1.13;;;9.90;99.90;;;;;;5053354;28;20454;-76
2023/12/28 03:00:08;;;;;;;5.00;0.90;;;9.90;99.90;;;;;;5052942;28;20044;-75
2023/12/28 03:02:35;;;;;;;3.95;0.82;;;9.90;99.90;;;;;;5053440;28;20041;-75
2023/12/28 03:05:01;;;;;;;4.65;1.05;;;9.90;99.90;;;;;;5052370;28;20025;-75
2023/12/28 03:07:26;;;;;;;5.57;1.10;;;9.80;99.90;;;;;;5043978;28;20124;-75
2023/12/28 03:09:52;;;;;;;3.38;0.82;;;9.90;99.90;;;;;;5051530;28;20100;-75
2023/12/28 03:12:18;;;;;;;4.07;0.82;;;9.90;99.90;;;;;;5053412;28;20553;-75
2023/12/28 03:14:43;;;;;;;3.60;0.70;;;9.90;99.90;;;;;;5052096;28;20405;-75
2023/12/28 03:17:11;;;;;;;7.72;0.80;;;9.80;99.90;;;;;;5050178;28;20071;-76
2023/12/28 03:19:37;;;;;;;3.92;0.77;;;9.90;99.90;;;;;;5052319;28;20548;-75
2023/12/28 03:22:03;;;;;;;2.85;0.73;;;9.90;99.90;;;;;;5053209;28;20155;-75
2023/12/28 03:24:28;;;;;;;6.65;0.82;;;9.80;99.90;;;;;;5051508;28;20029;-75
2023/12/28 03:26:54;;;;;;;2.78;0.70;;;9.90;99.90;;;;;;5047255;28;20044;-75
2023/12/28 03:29:20;;;;;;;4.55;0.63;;;9.80;99.90;;;;;;5034773;28;20025;-75
2023/12/28 03:31:45;;;;;;;3.58;0.68;;;9.80;99.90;;;;;;5052739;28;20112;-75
2023/12/28 03:34:11;;;;;;;3.95;0.80;;;9.80;99.90;;;;;;5053309;28;20119;-75
2023/12/28 03:36:37;;;;;;;2.78;0.70;;;9.90;99.90;;;;;;5048999;28;20115;-75
2023/12/28 03:39:03;;;;;;;3.60;0.90;;;10.00;99.90;;;;;;5050587;28;20052;-76
2023/12/28 03:41:29;;;;;;;5.68;0.93;;;10.00;99.90;;;;;;5052620;28;20083;-75
2023/12/28 03:43:55;;;;;;;3.35;0.60;;;10.10;99.90;;;;;;5052247;28;20481;-75
2023/12/28 03:46:21;;;;;;;5.75;0.80;;;10.10;99.90;;;;;;5039418;28;20031;-75
2023/12/28 03:48:47;;;;;;;6.53;0.60;;;10.20;99.90;;;;;;5052685;28;20107;-76
2023/12/28 03:51:16;;;;;;;4.05;0.65;;;10.20;99.90;;;;;;5052484;28;20555;-75
2023/12/28 03:53:42;;;;;;;6.85;0.95;;;10.20;99.90;;;;;;5049823;28;20041;-75
2023/12/28 03:56:08;;;;;;;2.55;1.05;;;10.20;99.90;;;;;;5049516;28;20043;-75
2023/12/28 03:58:33;;;;;;;6.10;0.80;;;10.20;99.90;;;;;;5049348;28;20481;-75
2023/12/28 04:00:59;;;;;;;4.53;0.63;;;10.20;99.90;;;;;;5032665;28;20020;-75
2023/12/28 04:03:24;;;;;;;5.65;0.73;;;10.30;99.90;;;;;;5050743;28;20028;-75
2023/12/28 04:05:51;;;;;;;5.88;0.70;;;10.30;99.90;;;;;;5044873;28;20025;-75
2023/12/28 04:08:17;;;;;;;5.40;0.70;;;10.20;99.90;;;;;;5048582;28;20493;-75
2023/12/28 04:10:42;;;;;;;4.05;0.50;;;10.30;99.90;;;;;;5052145;28;20408;-75
2023/12/28 04:13:08;;;;;;;8.07;1.38;;;10.30;99.90;;;;;;5052151;28;20100;-75
2023/12/28 04:15:33;;;;;;;4.53;0.90;;;10.30;99.90;;;;;;5051065;28;20067;-76
2023/12/28 04:17:59;;;;;;;7.05;1.10;;;10.30;99.90;;;;;;5051243;28;20385;-75
2023/12/28 04:20:25;;;;;;;3.38;0.63;;;10.30;99.90;;;;;;5051692;28;20033;-75
2023/12/28 04:22:50;;;;;;;6.80;0.90;;;10.30;99.90;;;;;;5047753;28;20049;-76
2023/12/28 04:25:16;;;;;;;8.43;0.65;;;10.30;99.90;;;;;;5033254;28;20086;-75
2023/12/28 04:27:42;;;;;;;7.80;0.93;;;10.30;99.90;;;;;;5049358;28;20048;-75
2023/12/28 04:30:11;;;;;;;10.68;0.80;;;10.30;99.90;;;;;;5051104;28;20025;-75
2023/12/28 04:32:36;;;;;;;9.45;0.80;;;10.30;99.90;;;;;;5051687;28;20029;-75
2023/12/28 04:35:03;;;;;;;6.53;0.70;;;10.40;99.90;;;;;;5043912;28;20507;-75
2023/12/28 04:37:30;;;;;;;4.47;0.68;;;10.30;99.90;;;;;;5050669;28;20504;-76
2023/12/28 04:39:56;;;;;;;7.60;0.95;;;10.30;99.90;;;;;;5048538;28;20048;-75
2023/12/28 04:42:22;;;;;;;12.57;1.00;;;10.30;99.90;;;;;;5051237;28;20021;-75
2023/12/28 04:44:48;;;;;;;5.15;0.80;;;10.30;99.90;;;;;;5049712;28;20039;-75
2023/12/28 04:47:13;;;;;;;6.13;0.70;;;10.30;99.90;;;;;;5051132;28;20413;-75
2023/12/28 04:49:39;;;;;;;7.07;0.70;;;10.40;99.90;;;;;;5032841;28;20029;-75
2023/12/28 04:52:04;;;;;;;6.82;0.73;;;10.40;99.90;;;;;;5051460;28;20464;-75
2023/12/28 04:54:32;;;;;;;7.35;0.70;;;10.30;99.90;;;;;;5050667;28;20029;-75
2023/12/28 04:56:58;;;;;;;7.10;0.80;;;10.30;99.90;;;;;;5050604;28;20032;-75
2023/12/28 04:59:23;;;;;;;5.88;0.50;;;10.30;99.90;;;;;;5050378;28;20083;-75
2023/12/28 05:01:49;;;;;;;5.70;0.80;;;10.40;99.90;;;;;;5051428;28;20032;-75
2023/12/28 05:04:15;;;;;;;7.10;1.00;;;10.30;99.90;;;;;;5050574;28;20100;-75
2023/12/28 05:06:40;;;;;;;4.85;0.55;;;10.40;99.90;;;;;;5032579;28;20029;-76
2023/12/28 05:09:06;;;;;;;6.10;0.70;;;10.40;99.90;;;;;;5048544;28;20127;-75
2023/12/28 05:11:32;;;;;;;7.60;0.90;;;10.40;99.90;;;;;;5050438;28;20029;-75
2023/12/28 05:13:57;;;;;;;8.05;0.60;;;10.50;99.90;;;;;;5048066;28;20518;-75
2023/12/28 05:16:23;;;;;;;11.38;0.90;;;10.60;99.90;;;;;;5050341;28;20045;-75
2023/12/28 05:18:48;;;;;;;5.82;0.85;;;10.50;99.90;;;;;;5051283;28;20021;-75
2023/12/28 05:21:14;;;;;;;5.10;0.60;;;10.60;99.90;;;;;;5037384;28;20442;-75
2023/12/28 05:23:40;;;;;;;6.47;0.80;;;10.60;99.90;;;;;;5051451;28;20021;-75
2023/12/28 05:26:06;;;;;;;10.35;0.80;;;10.60;99.90;;;;;;5050550;28;20025;-75
2023/12/28 05:28:32;;;;;;;12.38;0.70;;;10.70;99.90;;;;;;5032440;28;20484;-75
2023/12/28 05:31:01;;;;;;;6.47;0.60;;;10.60;99.90;;;;;;5021583;28;20037;-76
2023/12/28 05:33:27;;;;;;;11.70;0.73;;;10.70;99.90;;;;;;5024798;28;20116;-75
2023/12/28 05:35:52;;;;;;;7.53;0.75;;;10.80;99.90;;;;;;5048812;28;20552;-75
2023/12/28 05:38:18;;;;;;;8.30;0.90;;;10.80;99.90;;;;;;5028057;28;20048;-75
2023/12/28 05:40:44;;;;;;;13.20;0.90;;;10.90;99.90;;;;;;5004217;28;20069;-75
2023/12/28 05:43:10;;;;;;;9.70;0.80;;;10.90;99.90;;;;;;5009358;28;20397;-75
2023/12/28 05:45:36;;;;;;;12.50;0.90;;;10.90;99.90;;;;;;5010279;28;20037;-75
2023/12/28 05:48:02;;;;;;;6.57;0.60;;;10.90;99.90;;;;;;5008362;28;20025;-75
2023/12/28 05:50:27;;;;;;;6.47;0.80;;;10.90;99.90;;;;;;5009463;28;20022;-75
2023/12/28 05:52:53;;;;;;;12.52;1.23;;;11.00;99.90;;;;;;5009312;28;20029;-75
2023/12/28 05:55:18;;;;;;;7.40;0.85;;;11.00;99.90;;;;;;5010814;28;20039;-76
2023/12/28 05:57:44;;;;;;;6.90;0.70;;;11.00;99.90;;;;;;5010363;28;20061;-76
2023/12/28 06:00:10;;;;;;;9.35;0.95;;;11.00;99.90;;;;;;5010110;28;20028;-76
2023/12/28 06:02:36;;;;;;;8.77;0.88;;;11.00;99.90;;;;;;5005933;28;20573;-76
2023/12/28 06:05:02;;;;;;;15.50;0.80;;;11.00;99.90;;;;;;5010061;28;20094;-75
2023/12/28 06:07:27;;;;;;;7.18;0.82;;;10.90;99.90;;;;;;5010247;28;20034;-75
2023/12/28 06:09:53;;;;;;;7.88;1.10;;;10.90;99.90;;;;;;5010993;28;20137;-75
2023/12/28 06:12:18;;;;;;;8.30;1.05;;;10.90;99.90;;;;;;5008674;28;20022;-75
2023/12/28 06:14:44;;;;;;;7.88;0.73;;;10.90;99.90;;;;;;5009064;28;20030;-75
2023/12/28 06:17:10;;;;;;;8.13;0.95;;;11.00;99.90;;;;;;5001409;28;20088;-75
2023/12/28 06:19:35;;;;;;;11.30;0.98;;;11.00;99.90;;;;;;5001619;28;20025;-75
2023/12/28 06:22:01;;;;;;;13.30;0.88;;;11.00;99.90;;;;;;5001602;28;22603;-76
2023/12/28 06:24:26;;;;;;;8.02;1.02;;;11.00;99.90;;;;;;5007785;28;20033;-76
2023/12/28 06:26:52;;;;;;;7.53;0.80;;;11.00;99.90;;;;;;5001114;28;20057;-73
2023/12/28 06:29:18;;;;;;;11.90;0.95;;;11.00;99.90;;;;;;5007913;28;20390;-75
2023/12/28 06:31:44;;;;;;;10.02;0.95;;;11.10;99.90;;;;;;5000633;28;20394;-75
2023/12/28 06:34:10;;;;;;;10.50;1.08;;;11.00;99.90;;;;;;5010238;28;20030;-74
2023/12/28 06:36:35;;;;;;;11.15;1.55;;;11.00;99.90;;;;;;5008326;28;20038;-76
2023/12/28 06:39:01;;;;;;;8.75;0.70;;;11.00;99.90;;;;;;5032546;28;20051;-75
2023/12/28 06:41:27;;;;;;;9.05;0.90;;;11.10;99.90;;;;;;5048117;28;20485;-76
2023/12/28 06:43:53;;;;;;;10.70;1.05;;;11.10;99.90;;;;;;5046908;28;20028;-76
2023/12/28 06:46:19;;;;;;;10.40;0.85;;;11.00;99.90;;;;;;5047085;28;20078;-76
2023/12/28 06:48:45;;;;;;;11.07;1.45;;;11.10;99.90;;;;;;5046520;28;20036;-76
2023/12/28 06:51:21;;;;;;;16.23;1.15;;;11.10;99.90;;;;;;5046850;28;20112;-75
2023/12/28 06:53:48;;;;;;;16.02;1.95;;;11.10;99.90;;;;;;5051950;28;20025;-75
2023/12/28 06:56:14;;;;;;;7.07;0.93;;;11.10;99.90;;;;;;5046832;28;20043;-75
2023/12/28 06:58:39;;;;;;;13.35;0.90;;;11.10;99.90;;;;;;5053583;28;20021;-75
2023/12/28 07:01:05;;;;;;;13.07;1.10;;;11.10;99.90;;;;;;5029189;28;20508;-75
2023/12/28 07:03:32;;;;;;;9.30;1.00;;;11.10;99.90;;;;;;5052996;28;20382;-76
2023/12/28 07:05:58;;;;;;;15.27;1.00;;;11.10;99.90;;;;;;5048907;28;20021;-76
2023/12/28 07:08:24;;;;;;;11.00;1.25;;;11.10;99.90;;;;;;5052445;28;20037;-76
2023/12/28 07:10:50;;;;;;;14.55;1.20;;;11.10;99.90;;;;;;5042832;28;20036;-76
2023/12/28 07:13:16;;;;;;;10.80;0.70;;;11.10;99.90;;;;;;5035197;28;20045;-76
2023/12/28 07:15:41;;;;;;;13.40;1.13;;;11.10;99.90;;;;;;5049145;28;20039;-75
2023/12/28 07:18:07;;;;;;;8.07;0.88;;;11.20;99.90;;;;;;5050855;28;20082;-76
2023/12/28 07:20:32;;;;;;;8.73;1.52;;;11.10;99.90;;;;;;5051402;28;20037;-76
2023/12/28 07:22:58;;;;;;;14.18;0.93;;;11.10;99.90;;;;;;5045340;28;20062;-75
2023/12/28 07:25:24;;;;;;;7.90;0.73;;;11.10;99.90;;;;;;5047054;28;20120;-74
2023/12/28 07:27:49;;;;;;;13.80;1.58;;;11.10;99.90;;;;;;5053412;28;20028;-75
2023/12/28 07:30:16;;;;;;;14.77;1.00;;;11.10;99.90;;;;;;5034240;28;20024;-75
2023/12/28 07:32:42;;;;;;;13.95;0.90;;;11.00;99.90;;;;;;5051576;28;20025;-75
2023/12/28 07:35:08;;;;;;;11.20;0.80;;;10.90;99.90;;;;;;5045357;28;20102;-75
2023/12/28 07:37:34;;;;;;;13.32;1.33;;;10.90;99.90;;;;;;5046322;28;20028;-75
2023/12/28 07:39:59;;;;;;;16.85;1.35;;;10.90;99.90;;;;;;5052311;28;20055;-75
2023/12/28 07:42:25;;;;;;;16.52;0.95;;;10.90;99.90;;;;;;5048017;28;20098;-75
2023/12/28 07:44:50;;;;;;;17.02;1.20;;;10.90;99.90;;;;;;5043840;28;20080;-75
2023/12/28 07:47:16;;;;;;;12.23;0.85;;;10.90;99.90;;;;;;5048203;28;20021;-75
2023/12/28 07:49:42;;;;;;;8.27;0.90;;;10.90;99.90;;;;;;5052709;28;20751;-75
2023/12/28 07:52:07;;;;;;;13.68;1.33;;;10.80;99.90;;;;;;5052923;28;20096;-75
2023/12/28 07:54:33;;;;;;;12.65;1.90;;;10.80;99.90;;;;;;5052635;28;20040;-75
2023/12/28 07:56:59;;;;;;;13.20;1.00;;;10.90;99.90;;;;;;5051002;28;20043;-75
2023/12/28 07:59:25;;;;;;;11.23;1.00;;;10.90;99.90;;;;;;5051953;28;20537;-75
2023/12/28 08:01:51;;;;;;;12.75;1.45;;;10.90;99.90;;;;;;5039460;28;21975;-75
2023/12/28 08:04:16;;;;;;;17.52;2.03;;;10.90;99.90;;;;;;5051849;28;20028;-75
2023/12/28 08:06:42;;;;;;;15.98;1.45;;;10.90;99.90;;;;;;5051030;28;20025;-74
2023/12/28 08:09:08;;;;;;;13.48;1.08;;;11.00;99.90;;;;;;5051615;28;20032;-75
2023/12/28 08:11:34;;;;;;;11.50;1.17;;;11.00;99.90;;;;;;5051622;28;20033;-75
2023/12/28 08:14:00;;;;;;;8.60;0.98;;;11.00;99.90;;;;;;5052253;28;20028;-74
2023/12/28 08:16:26;;;;;;;13.57;1.05;;;11.00;99.90;;;;;;5050549;28;20036;-74
2023/12/28 08:18:51;;;;;;;13.38;1.77;;;11.10;99.90;;;;;;5049175;28;20031;-74
2023/12/28 08:21:17;;;;;;;15.63;1.10;;;11.10;99.90;;;;;;5049461;28;20389;-74
2023/12/28 08:23:44;;;;;;;11.85;1.05;;;11.10;99.90;;;;;;5049104;28;20029;-74
2023/12/28 08:26:10;;;;;;;10.63;1.02;;;11.10;99.90;;;;;;5049967;28;20504;-74
2023/12/28 08:28:36;;;;;;;14.95;1.20;;;11.20;99.90;;;;;;5046554;28;20041;-74
2023/12/28 08:31:02;;;;;;;12.35;0.80;;;11.10;99.90;;;;;;5050139;28;20033;-74
2023/12/28 08:33:28;;;;;;;14.38;0.93;;;11.10;99.90;;;;;;5049838;28;20488;-74
2023/12/28 08:35:54;;;;;;;11.02;1.17;;;11.10;99.90;;;;;;5050328;28;20080;-74
2023/12/28 08:38:20;;;;;;;10.85;1.20;;;11.00;99.90;;;;;;5048748;28;20072;-74
2023/12/28 08:40:45;;;;;;;18.13;1.42;;;11.00;99.90;;;;;;5052049;28;20025;-74
2023/12/28 08:43:11;;;;;;;14.90;1.00;;;11.00;99.90;;;;;;5051740;28;20025;-74
2023/12/28 08:45:37;;;;;;;16.17;1.40;;;10.90;99.90;;;;;;5051625;28;20440;-74
2023/12/28 08:48:03;;;;;;;11.02;1.10;;;11.00;99.90;;;;;;5049809;28;20109;-74
2023/12/28 08:50:29;;;;;;;17.70;1.38;;;11.00;99.90;;;;;;5048188;28;20033;-74
2023/12/28 08:52:54;;;;;;;12.32;1.25;;;11.10;99.90;;;;;;5054259;28;20017;-74
2023/12/28 08:55:21;;;;;;;16.58;1.80;;;11.10;99.90;;;;;;5051807;28;20040;-74
2023/12/28 08:57:47;;;;;;;12.85;1.20;;;11.20;99.90;;;;;;5052165;28;20103;-74
2023/12/28 09:00:14;;;;;;;16.70;1.25;;;11.20;99.90;;;;;;5047701;28;20021;-74
2023/12/28 09:02:40;;;;;;;10.15;0.93;;;11.20;99.90;;;;;;5051426;28;20021;-74
2023/12/28 09:05:06;;;;;;;14.30;1.20;;;11.20;99.90;;;;;;5050535;28;20604;-75
2023/12/28 09:07:32;;;;;;;10.63;1.00;;;11.20;99.90;;;;;;5051618;28;20652;-74
2023/12/28 09:09:58;;;;;;;11.82;1.15;;;11.20;99.90;;;;;;5049858;28;20112;-74
2023/12/28 09:12:24;;;;;;;14.63;2.03;;;11.30;99.90;;;;;;5050551;28;20167;-74
2023/12/28 09:14:52;;;;;;;12.07;0.90;;;11.30;99.90;;;;;;5032966;28;20499;-74
2023/12/28 09:17:20;;;;;;;15.95;2.38;;;11.30;99.90;;;;;;5050338;28;20021;-74
2023/12/28 09:19:46;;;;;;;12.20;1.08;;;11.20;99.90;;;;;;5050708;28;20078;-74
2023/12/28 09:22:12;;;;;;;15.20;1.48;;;11.20;99.90;;;;;;5045984;28;22358;-74
2023/12/28 09:24:37;;;;;;;11.10;0.98;;;11.30;99.90;;;;;;5050592;28;20021;-74
2023/12/28 09:27:03;;;;;;;12.10;1.08;;;11.30;99.90;;;;;;5048665;28;20048;-74
2023/12/28 09:29:28;;;;;;;14.30;0.95;;;11.30;99.90;;;;;;5050069;28;20021;-74
2023/12/28 09:31:54;;;;;;;11.10;0.82;;;11.30;99.90;;;;;;5046384;28;20110;-74
2023/12/28 09:34:20;;;;;;;10.25;1.10;;;11.30;99.90;;;;;;5048797;28;20033;-74
2023/12/28 09:36:45;;;;;;;13.32;1.00;;;11.40;99.90;;;;;;5049029;28;20485;-74
2023/12/28 09:39:11;;;;;;;12.40;1.52;;;11.40;99.90;;;;;;5019446;28;20037;-74
2023/12/28 09:41:42;;;;;;;11.82;1.05;;;11.40;99.90;;;;;;5035434;28;20032;-74
2023/12/28 09:44:11;;;;;;;13.63;0.70;;;11.40;99.90;;;;;;5038945;28;20025;-74
2023/12/28 09:46:38;;;;;;;15.70;1.13;;;11.40;99.90;;;;;;5046738;28;20033;-74
2023/12/28 09:49:04;;;;;;;10.88;1.20;;;11.40;99.90;;;;;;5048808;28;20025;-74
2023/12/28 09:51:30;;;;;;;9.68;0.75;;;11.50;99.90;;;;;;5047125;28;20543;-74
2023/12/28 09:53:59;;;;;;;13.15;1.17;;;11.50;99.90;;;;;;5046889;28;20029;-74
2023/12/28 09:56:25;;;;;;;12.10;1.05;;;11.60;99.90;;;;;;5047904;28;20041;-74
2023/12/28 09:58:51;;;;;;;8.23;1.05;;;11.60;99.90;;;;;;5048750;28;20073;-74
2023/12/28 10:01:20;;;;;;;17.10;1.52;;;11.70;99.90;;;;;;5049219;28;20412;-75
2023/12/28 10:03:45;;;;;;;11.50;0.82;;;11.70;99.90;;;;;;5046888;28;20025;-74
2023/12/28 10:06:11;;;;;;;11.63;0.95;;;11.70;99.90;;;;;;5046702;28;20437;-74
2023/12/28 10:08:44;;;;;;;13.40;1.00;;;11.80;99.90;;;;;;5039436;28;20032;-74
2023/12/28 10:11:10;;;;;;;11.48;1.40;;;11.80;99.90;;;;;;5031380;28;20025;-74
2023/12/28 10:13:36;;;;;;;10.90;0.90;;;11.80;99.90;;;;;;5047714;28;20029;-74
2023/12/28 10:16:03;;;;;;;14.43;1.20;;;11.80;99.90;;;;;;5048407;28;20029;-74
2023/12/28 10:18:29;;;;;;;14.48;0.93;;;11.80;99.90;;;;;;5048895;28;20021;-74
2023/12/28 10:20:55;;;;;;;13.20;1.30;;;11.80;99.90;;;;;;5049890;28;20024;-74
2023/12/28 10:23:21;;;;;;;13.25;1.30;;;11.80;99.90;;;;;;5026214;28;20392;-74
2023/12/28 10:25:48;;;;;;;14.13;1.35;;;11.80;99.90;;;;;;5050361;28;20392;-74
2023/12/28 10:28:18;;;;;;;10.45;0.82;;;11.90;99.90;;;;;;5051884;28;20672;-74
2023/12/28 10:30:44;;;;;;;14.13;0.82;;;11.80;99.90;;;;;;5053893;28;20033;-74
2023/12/28 10:33:09;;;;;;;17.48;1.45;;;11.70;99.90;;;;;;5051277;28;20021;-74
2023/12/28 10:35:35;;;;;;;12.27;1.05;;;11.70;99.90;;;;;;5051844;28;20493;-74
2023/12/28 10:38:04;;;;;;;14.80;1.85;;;11.60;99.90;;;;;;5048869;28;20045;-74
2023/12/28 10:40:33;;;;;;;16.55;1.40;;;11.60;99.90;;;;;;5052823;28;20112;-74
2023/12/28 10:43:01;;;;;;;13.65;0.85;;;11.60;99.90;;;;;;5051374;28;20025;-74
2023/12/28 10:45:31;;;;;;;11.13;0.82;;;11.60;99.90;;;;;;5036397;28;20071;-74
2023/12/28 10:48:12;;;;;;;11.73;1.55;;;11.60;99.90;;;;;;5050141;28;20021;-74
2023/12/28 10:50:40;;;;;;;8.18;0.90;;;11.60;99.90;;;;;;5053473;28;20032;-74
2023/12/28 10:53:26;;;;;;;19.25;1.60;;;11.70;99.90;;;;;;5031169;28;20028;-75
2023/12/28 10:56:16;;;;;;;17.20;1.35;;;11.70;99.90;;;;;;5049481;28;20056;-74
2023/12/28 10:59:00;;;;;;;11.00;0.90;;;11.70;99.90;;;;;;5050242;28;20442;-74
2023/12/28 11:01:31;;;;;;;12.27;0.80;;;11.70;99.90;;;;;;5053726;28;20036;-75
2023/12/28 11:04:21;;;;;;;12.13;1.45;;;11.80;99.90;;;;;;5046130;28;20013;-75
2023/12/28 11:06:49;;;;;;;13.55;0.95;;;11.80;99.90;;;;;;5025465;28;20029;-74
2023/12/28 11:09:15;;;;;;;10.52;1.23;;;11.80;99.90;;;;;;5057125;28;20424;-74
2023/12/28 11:11:46;;;;;;;10.60;0.80;;;11.80;99.90;;;;;;5056155;28;20056;-74
2023/12/28 11:14:13;;;;;;;14.27;1.30;;;11.90;99.90;;;;;;5051273;28;20087;-74
2023/12/28 11:16:40;;;;;;;13.98;1.20;;;11.90;99.90;;;;;;5048383;28;20065;-75
2023/12/28 11:19:07;;;;;;;13.70;1.38;;;11.90;99.90;;;;;;5050915;28;20025;-74
2023/12/28 11:21:33;;;;;;;17.63;1.83;;;11.90;99.90;;;;;;5051980;28;20511;-75
2023/12/28 11:24:00;;;;;;;12.68;1.23;;;11.90;99.90;;;;;;5045198;28;20088;-74
2023/12/28 11:26:27;;;;;;;10.05;1.00;;;12.00;99.90;;;;;;5050153;28;20036;-74
2023/12/28 11:29:01;;;;;;;13.75;1.05;;;12.00;99.90;;;;;;5047745;28;20388;-74
2023/12/28 11:31:26;;;;;;;21.83;1.70;;;12.00;99.90;;;;;;5041443;28;20060;-75
2023/12/28 11:33:53;;;;;;;14.07;0.95;;;12.00;99.90;;;;;;5049434;28;20473;-74
2023/12/28 11:36:44;;;;;;;11.38;1.33;;;12.00;99.90;;;;;;5051624;28;20044;-75
2023/12/28 11:39:10;;;;;;;17.98;1.58;;;12.00;99.90;;;;;;5046711;28;20041;-74
2023/12/28 11:41:36;;;;;;;16.63;2.25;;;12.00;99.90;;;;;;5051195;28;20032;-74
2023/12/28 11:44:05;;;;;;;11.30;1.00;;;12.00;99.90;;;;;;5050182;28;20025;-74
2023/12/28 11:46:36;;;;;;;16.98;1.20;;;12.00;99.90;;;;;;5028005;28;20478;-74
2023/12/28 11:49:06;;;;;;;13.57;1.15;;;12.00;99.90;;;;;;5044706;28;20056;-74
2023/12/28 11:51:34;;;;;;;9.30;0.93;;;12.00;99.90;;;;;;5048800;28;20330;-74
2023/12/28 11:54:00;;;;;;;10.52;0.98;;;12.00;99.90;;;;;;5051008;28;20485;-74
2023/12/28 11:56:26;;;;;;;14.68;1.30;;;12.00;99.90;;;;;;5030370;28;20094;-74
2023/12/28 11:58:51;;;;;;;20.05;1.35;;;12.00;99.90;;;;;;5028968;28;20035;-75
2023/12/28 12:01:17;;;;;;;19.38;1.75;;;12.00;99.90;;;;;;5045894;28;20377;-74
2023/12/28 12:03:43;;;;;;;18.48;1.42;;;12.00;99.90;;;;;;5046857;28;20036;-75
2023/12/28 12:06:09;;;;;;;10.43;1.17;;;12.00;99.90;;;;;;5042724;28;20488;-74
2023/12/28 12:08:35;;;;;;;11.90;1.35;;;12.00;99.90;;;;;;5029648;28;20017;-74
2023/12/28 12:11:03;;;;;;;12.38;1.15;;;12.00;99.90;;;;;;5047500;28;20104;-74
2023/12/28 12:13:30;;;;;;;13.10;1.65;;;12.00;99.90;;;;;;5043737;28;20062;-74
2023/12/28 12:15:56;;;;;;;19.23;1.33;;;12.00;99.90;;;;;;5045624;28;20037;-74
2023/12/28 12:18:23;;;;;;;17.00;1.67;;;12.00;99.90;;;;;;5050385;28;20025;-74
2023/12/28 12:20:50;;;;;;;18.90;1.77;;;12.00;99.90;;;;;;5050866;28;20032;-74
2023/12/28 12:23:15;;;;;;;10.50;0.85;;;12.00;99.90;;;;;;5030775;28;20116;-75
2023/12/28 12:25:42;;;;;;;20.08;2.17;;;12.00;99.90;;;;;;5047179;28;20491;-75
2023/12/28 12:28:08;;;;;;;13.18;1.33;;;11.90;99.90;;;;;;5050908;28;20108;-75
2023/12/28 12:30:34;;;;;;;17.85;1.05;;;11.90;99.90;;;;;;5050774;28;20033;-74
2023/12/28 12:33:00;;;;;;;12.27;0.77;;;11.90;99.90;;;;;;5033009;28;20028;-75
2023/12/28 12:35:27;;;;;;;11.55;1.55;;;11.90;99.90;;;;;;5049262;28;20515;-74
2023/12/28 12:37:53;;;;;;;18.13;1.98;;;11.90;99.90;;;;;;5047782;28;20033;-75
2023/12/28 12:40:20;;;;;;;17.85;1.23;;;11.80;99.90;;;;;;5048175;28;20120;-75